createdAt,value
2018-11-14T00:00:40.724Z,13.93
2018-11-14T00:03:12.585Z,13.47
2018-11-14T00:05:42.253Z,12.97
2018-11-14T00:08:14.337Z,16.07
2018-11-14T00:10:44.245Z,15.23
2018-11-14T00:13:14.087Z,14.60
2018-11-14T00:15:44.517Z,14.33
2018-11-14T00:18:13.490Z,12.53
2018-11-14T00:20:43.272Z,12.17
2018-11-14T00:23:14.184Z,11.83
2018-11-14T00:25:47.741Z,12.97
2018-11-14T00:28:18.507Z,12.43
2018-11-14T00:30:47.477Z,12.20
2018-11-14T00:33:16.929Z,11.20
2018-11-14T00:35:45.592Z,12.77
2018-11-14T00:38:16.143Z,11.77
2018-11-14T00:40:46.317Z,11.23
2018-11-14T00:43:16.482Z,11.53
2018-11-14T00:45:45.419Z,12.17
2018-11-14T00:48:14.691Z,10.10
2018-11-14T00:50:43.676Z,15.03
2018-11-14T00:53:13.990Z,17.30
2018-11-14T00:55:43.037Z,14.17
2018-11-14T00:58:13.270Z,14.40
2018-11-14T01:00:44.989Z,14.70
2018-11-14T01:03:13.956Z,16.27
2018-11-14T01:05:44.687Z,16.07
2018-11-14T01:08:18.917Z,15.40
2018-11-14T01:10:48.758Z,16.67
2018-11-14T01:13:23.240Z,15.03
2018-11-14T01:15:56.664Z,15.53
2018-11-14T01:18:30.113Z,15.17
2018-11-14T01:20:59.438Z,15.80
2018-11-14T01:23:30.968Z,15.83
2018-11-14T01:26:03.330Z,16.30
2018-11-14T01:28:32.594Z,17.60
2018-11-14T01:31:02.903Z,17.17
2018-11-14T01:33:33.954Z,24.70
2018-11-14T01:36:05.572Z,20.83
2018-11-14T01:38:34.810Z,26.77
2018-11-14T01:41:05.485Z,25.47
2018-11-14T01:43:35.722Z,26.57
2018-11-14T01:46:06.377Z,20.03
2018-11-14T01:48:39.415Z,21.13
2018-11-14T01:51:11.265Z,21.80
2018-11-14T01:53:40.757Z,22.40
2018-11-14T01:56:13.438Z,26.93
2018-11-14T01:58:43.510Z,22.50
2018-11-14T02:01:14.860Z,21.87
2018-11-14T02:03:44.091Z,25.90
2018-11-14T02:06:15.018Z,28.33
2018-11-14T02:08:45.884Z,29.03
2018-11-14T02:11:15.148Z,24.90
2018-11-14T02:13:44.332Z,18.70
2018-11-14T02:16:15.337Z,24.07
2018-11-14T02:18:45.371Z,19.17
2018-11-14T02:21:14.947Z,24.70
2018-11-14T02:23:44.421Z,27.70
2018-11-14T02:26:13.704Z,19.87
2018-11-14T02:28:43.148Z,22.70
2018-11-14T02:31:12.887Z,22.60
2018-11-14T02:33:43.102Z,16.70
2018-11-14T02:36:12.632Z,14.17
2018-11-14T02:38:42.723Z,15.40
2018-11-14T02:41:13.069Z,17.83
2018-11-14T02:43:42.083Z,18.40
2018-11-14T02:46:11.394Z,18.87
2018-11-14T02:48:40.670Z,19.33
2018-11-14T02:51:25.299Z,15.53
2018-11-14T02:53:54.978Z,17.03
2018-11-14T02:56:27.573Z,11.73
2018-11-14T02:58:56.700Z,13.30
2018-11-14T03:01:25.732Z,15.70
2018-11-14T03:03:55.637Z,13.17
2018-11-14T03:06:24.887Z,13.60
2018-11-14T03:08:53.983Z,12.27
2018-11-14T03:11:23.173Z,15.63
2018-11-14T03:13:52.156Z,13.20
2018-11-14T03:16:21.366Z,12.57
2018-11-14T03:18:50.360Z,12.00
2018-11-14T03:21:19.616Z,13.87
2018-11-14T03:26:24.632Z,12.97
2018-11-14T03:28:53.930Z,12.07
2018-11-14T03:31:23.047Z,11.97
2018-11-14T03:33:52.133Z,10.10
2018-11-14T03:36:21.919Z,10.10
2018-11-14T03:38:50.896Z,9.97
2018-11-14T03:41:19.806Z,10.67
2018-11-14T03:43:50.597Z,10.60
2018-11-14T03:46:19.582Z,12.07
2018-11-14T03:48:49.091Z,10.10
2018-11-14T03:51:18.058Z,10.53
2018-11-14T03:53:47.431Z,10.17
2018-11-14T03:56:16.946Z,9.50
2018-11-14T03:58:45.959Z,9.83
2018-11-14T04:01:15.079Z,9.13
2018-11-14T04:03:44.021Z,10.70
2018-11-14T04:06:13.433Z,10.97
2018-11-14T04:08:42.426Z,11.20
2018-11-14T04:11:12.121Z,11.73
2018-11-14T04:13:41.209Z,10.60
2018-11-14T04:16:10.189Z,14.03
2018-11-14T04:18:39.177Z,14.87
2018-11-14T04:21:08.187Z,13.30
2018-11-14T04:23:43.586Z,13.77
2018-11-14T04:26:12.575Z,14.97
2018-11-14T04:28:42.060Z,20.37
2018-11-14T04:31:11.013Z,15.87
2018-11-14T04:33:40.295Z,13.77
2018-11-14T04:36:09.258Z,20.47
2018-11-14T04:38:38.301Z,17.97
2018-11-14T04:41:07.403Z,12.60
2018-11-14T04:43:36.357Z,14.00
2018-11-14T04:46:05.408Z,22.93
2018-11-14T04:48:34.412Z,14.80
2018-11-14T04:51:03.376Z,15.47
2018-11-14T04:53:32.358Z,15.30
2018-11-14T04:56:02.496Z,13.17
2018-11-14T04:58:31.517Z,15.70
2018-11-14T05:01:00.608Z,14.73
2018-11-14T05:03:29.634Z,14.80
2018-11-14T05:05:58.717Z,14.93
2018-11-14T05:08:28.440Z,14.77
2018-11-14T05:10:57.430Z,15.50
2018-11-14T05:13:26.383Z,15.30
2018-11-14T05:15:55.357Z,16.07
2018-11-14T05:18:24.778Z,24.93
2018-11-14T05:20:53.726Z,12.73
2018-11-14T05:23:22.723Z,12.37
2018-11-14T05:25:53.264Z,11.77
2018-11-14T05:28:22.298Z,13.10
2018-11-14T05:30:51.757Z,11.87
2018-11-14T05:33:20.721Z,9.47
2018-11-14T05:35:49.737Z,9.63
2018-11-14T05:38:19.328Z,9.83
2018-11-14T05:40:48.430Z,14.77
2018-11-14T05:43:17.395Z,11.57
2018-11-14T05:45:46.413Z,10.47
2018-11-14T05:48:15.400Z,15.87
2018-11-14T05:50:44.380Z,13.13
2018-11-14T05:53:13.582Z,11.60
2018-11-14T05:55:43.571Z,12.20
2018-11-14T05:58:12.578Z,11.67
2018-11-14T06:00:41.553Z,11.40
2018-11-14T06:03:10.710Z,12.20
2018-11-14T06:05:39.748Z,12.37
2018-11-14T06:08:08.751Z,10.90
2018-11-14T06:10:37.800Z,13.77
2018-11-14T06:13:07.376Z,15.60
2018-11-14T06:15:36.983Z,17.43
2018-11-14T06:18:05.942Z,12.60
2018-11-14T06:20:35.033Z,13.57
2018-11-14T06:23:04.359Z,13.50
2018-11-14T06:25:35.555Z,14.13
2018-11-14T06:28:08.710Z,11.83
2018-11-14T06:30:38.687Z,12.37
2018-11-14T06:33:08.883Z,14.47
2018-11-14T06:35:38.402Z,12.67
2018-11-14T06:38:07.633Z,13.80
2018-11-14T06:40:36.840Z,13.37
2018-11-14T06:43:05.974Z,12.37
2018-11-14T06:45:35.512Z,14.53
2018-11-14T06:48:05.532Z,13.73
2018-11-14T06:50:35.244Z,13.60
2018-11-14T06:53:05.550Z,14.00
2018-11-14T06:55:34.695Z,15.77
2018-11-14T06:58:04.337Z,19.87
2018-11-14T07:00:35.413Z,19.37
2018-11-14T07:03:06.433Z,13.37
2018-11-14T07:05:35.693Z,18.23
2018-11-14T07:08:06.331Z,19.13
2018-11-14T07:10:36.986Z,16.93
2018-11-14T07:13:08.242Z,23.90
2018-11-14T07:15:38.253Z,19.50
2018-11-14T07:18:09.981Z,15.50
2018-11-14T07:20:40.663Z,15.10
2018-11-14T07:23:11.127Z,15.97
2018-11-14T07:25:40.718Z,15.20
2018-11-14T07:28:10.522Z,17.83
2018-11-14T07:30:40.271Z,14.43
2018-11-14T07:33:11.307Z,15.07
2018-11-14T07:35:40.740Z,14.83
2018-11-14T07:38:48.578Z,14.33
2018-11-14T07:41:21.152Z,12.30
2018-11-14T07:43:51.792Z,15.03
2018-11-14T07:46:21.741Z,18.23
2018-11-14T07:48:51.937Z,13.10
2018-11-14T07:51:22.083Z,15.23
2018-11-14T07:53:52.479Z,16.90
2018-11-14T07:56:21.871Z,12.97
2018-11-14T07:58:51.104Z,11.83
2018-11-14T08:01:20.852Z,13.17
2018-11-14T08:03:50.218Z,14.20
2018-11-14T08:06:19.569Z,14.77
2018-11-14T08:08:48.656Z,13.23
2018-11-14T08:11:17.764Z,13.80
2018-11-14T08:13:48.365Z,13.23
2018-11-14T08:16:18.340Z,14.13
2018-11-14T08:18:47.388Z,14.47
2018-11-14T08:21:16.555Z,14.53
2018-11-14T08:23:45.626Z,17.27
2018-11-14T08:26:15.897Z,15.63
2018-11-14T08:28:45.047Z,15.37
2018-11-14T08:31:14.090Z,19.87
2018-11-14T08:33:43.254Z,21.60
2018-11-14T08:36:12.252Z,14.37
2018-11-14T08:38:41.443Z,16.90
2018-11-14T08:41:10.685Z,19.10
2018-11-14T08:43:40.824Z,18.67
2018-11-14T08:46:09.960Z,17.90
2018-11-14T08:48:39.039Z,16.90
2018-11-14T08:51:08.214Z,17.23
2018-11-14T08:53:37.203Z,16.13
2018-11-14T08:56:06.880Z,14.93
2018-11-14T08:58:42.151Z,23.00
2018-11-14T09:01:12.737Z,17.83
2018-11-14T09:03:41.779Z,19.60
2018-11-14T09:06:11.046Z,17.67
2018-11-14T09:08:40.179Z,16.93
2018-11-14T09:11:09.289Z,15.47
2018-11-14T09:13:39.235Z,16.40
2018-11-14T09:16:08.328Z,15.70
2018-11-14T09:18:37.637Z,15.43
2018-11-14T09:21:06.678Z,18.23
2018-11-14T09:23:35.998Z,15.87
2018-11-14T09:26:05.233Z,17.30
2018-11-14T09:28:34.307Z,16.33
2018-11-14T09:31:03.307Z,13.50
2018-11-14T09:33:32.331Z,15.80
2018-11-14T09:36:01.988Z,13.90
2018-11-14T09:38:31.056Z,13.47
2018-11-14T09:41:00.293Z,13.90
2018-11-14T09:43:29.232Z,14.97
2018-11-14T09:45:58.275Z,13.37
2018-11-14T09:48:27.412Z,14.80
2018-11-14T09:50:56.350Z,16.20
2018-11-14T09:53:27.091Z,14.97
2018-11-14T09:55:56.252Z,14.10
2018-11-14T09:58:25.337Z,15.20
2018-11-14T10:00:54.544Z,14.43
2018-11-14T10:03:23.557Z,14.90
2018-11-14T10:05:52.556Z,15.80
2018-11-14T10:08:22.336Z,15.80
2018-11-14T10:10:51.386Z,16.80
2018-11-14T10:13:20.537Z,16.10
2018-11-14T10:15:50.818Z,17.07
2018-11-14T10:18:19.888Z,16.50
2018-11-14T10:20:49.348Z,16.97
2018-11-14T10:23:18.427Z,13.50
2018-11-14T10:25:47.419Z,16.20
2018-11-14T10:28:17.142Z,13.50
2018-11-14T10:30:46.172Z,13.07
2018-11-14T10:33:15.846Z,13.50
2018-11-14T10:35:44.972Z,15.00
2018-11-14T10:38:14.679Z,14.90
2018-11-14T10:40:43.774Z,15.23
2018-11-14T10:43:12.781Z,13.43
2018-11-14T10:45:41.807Z,13.30
2018-11-14T10:48:10.883Z,13.30
2018-11-14T10:50:40.245Z,13.97
2018-11-14T10:53:09.556Z,17.60
2018-11-14T10:55:38.578Z,19.37
2018-11-14T10:58:07.723Z,19.10
2018-11-14T11:00:42.603Z,15.50
2018-11-14T11:03:12.433Z,17.53
2018-11-14T11:05:47.893Z,16.93
2018-11-14T11:08:22.270Z,15.63
2018-11-14T11:12:58.623Z,15.30
2018-11-14T11:15:32.995Z,15.90
2018-11-14T11:18:07.758Z,14.00
2018-11-14T11:20:36.980Z,14.30
2018-11-14T11:23:06.005Z,16.20
2018-11-14T11:25:35.034Z,15.20
2018-11-14T11:28:10.827Z,14.27
2018-11-14T11:30:40.048Z,14.60
2018-11-14T11:33:09.074Z,14.20
2018-11-14T11:35:38.332Z,16.03
2018-11-14T11:38:07.929Z,17.80
2018-11-14T11:40:37.070Z,16.63
2018-11-14T11:43:06.528Z,16.50
2018-11-14T11:45:36.275Z,17.00
2018-11-14T11:48:05.538Z,17.27
2018-11-14T11:50:34.629Z,15.50
2018-11-14T11:53:03.754Z,16.27
2018-11-14T11:55:33.992Z,13.30
2018-11-14T11:58:03.195Z,15.87
2018-11-14T12:00:33.099Z,13.53
2018-11-14T12:03:02.140Z,11.13
2018-11-14T12:05:31.621Z,10.40
2018-11-14T12:08:00.687Z,16.97
2018-11-14T12:10:29.934Z,14.23
2018-11-14T12:12:59.590Z,16.23
2018-11-14T12:15:28.889Z,18.30
2018-11-14T12:17:58.061Z,19.10
2018-11-14T12:20:27.123Z,16.47
2018-11-14T12:22:56.136Z,16.43
2018-11-14T12:25:25.185Z,17.53
2018-11-14T12:27:54.336Z,20.03
2018-11-14T12:30:23.927Z,16.60
2018-11-14T12:32:52.985Z,18.30
2018-11-14T12:35:22.406Z,17.70
2018-11-14T12:37:51.439Z,17.03
2018-11-14T12:40:20.421Z,17.40
2018-11-14T12:42:49.405Z,17.80
2018-11-14T12:45:18.647Z,17.63
2018-11-14T12:47:48.346Z,14.97
2018-11-14T12:50:17.494Z,17.50
2018-11-14T12:52:46.588Z,17.50
2018-11-14T12:55:17.106Z,17.03
2018-11-14T12:57:46.214Z,15.67
2018-11-14T13:00:17.027Z,19.03
2018-11-14T13:02:46.183Z,16.67
2018-11-14T13:05:15.913Z,13.63
2018-11-14T13:07:45.608Z,16.17
2018-11-14T13:10:16.221Z,15.30
2018-11-14T13:12:46.258Z,15.20
2018-11-14T13:15:16.349Z,15.60
2018-11-14T13:17:45.484Z,14.27
2018-11-14T13:20:17.030Z,13.37
2018-11-14T13:22:46.335Z,18.10
2018-11-14T13:25:16.025Z,17.43
2018-11-14T13:27:46.291Z,16.63
2018-11-14T13:30:17.104Z,17.67
2018-11-14T13:32:47.135Z,17.20
2018-11-14T13:35:18.135Z,17.97
2018-11-14T13:37:48.024Z,14.57
2018-11-14T13:40:17.164Z,16.03
2018-11-14T13:42:46.483Z,17.93
2018-11-14T13:45:16.774Z,14.83
2018-11-14T13:47:45.810Z,15.63
2018-11-14T13:50:18.685Z,14.63
2018-11-14T13:52:47.747Z,17.20
2018-11-14T13:55:18.365Z,15.77
2018-11-14T13:57:48.724Z,15.80
2018-11-14T14:00:18.881Z,17.30
2018-11-14T14:02:48.506Z,15.37
2018-11-14T14:05:19.045Z,13.37
2018-11-14T14:07:50.298Z,12.23
2018-11-14T14:10:19.579Z,12.73
2018-11-14T14:12:50.349Z,14.00
2018-11-14T14:15:20.732Z,13.60
2018-11-14T14:17:50.288Z,13.80
2018-11-14T14:20:20.191Z,15.83
2018-11-14T14:22:49.325Z,15.00
2018-11-14T14:25:19.638Z,15.17
2018-11-14T14:27:48.737Z,15.47
2018-11-14T14:30:19.502Z,16.23
2018-11-14T14:32:48.779Z,14.00
2018-11-14T14:35:18.990Z,17.23
2018-11-14T14:37:48.011Z,15.87
2018-11-14T14:40:20.271Z,17.57
2018-11-14T14:42:49.356Z,17.40
2018-11-14T14:45:23.635Z,19.40
2018-11-14T14:47:52.907Z,18.20
2018-11-14T14:50:22.020Z,20.00
2018-11-14T14:52:51.277Z,21.53
2018-11-14T14:55:23.023Z,19.20
2018-11-14T14:57:52.558Z,20.50
2018-11-14T15:00:22.864Z,21.23
2018-11-14T15:02:51.855Z,21.53
2018-11-14T15:05:20.842Z,17.37
2018-11-14T15:07:49.847Z,18.53
2018-11-14T15:10:20.622Z,20.37
2018-11-14T15:12:49.694Z,22.00
2018-11-14T15:15:19.339Z,22.57
2018-11-14T15:17:48.390Z,20.93
2018-11-14T15:20:19.421Z,21.90
2018-11-14T15:22:48.463Z,22.20
2018-11-14T15:25:20.388Z,20.33
2018-11-14T15:27:50.686Z,19.93
2018-11-14T15:30:23.787Z,19.43
2018-11-14T15:32:52.883Z,19.00
2018-11-14T15:35:22.653Z,19.90
2018-11-14T15:37:51.838Z,18.30
2018-11-14T15:40:22.321Z,19.43
2018-11-14T15:42:51.469Z,18.63
2018-11-14T15:45:25.745Z,16.67
2018-11-14T15:47:54.846Z,17.37
2018-11-14T15:50:25.306Z,20.93
2018-11-14T15:52:55.246Z,19.93
2018-11-14T15:55:24.414Z,20.30
2018-11-14T15:57:54.513Z,20.30
2018-11-14T16:00:24.960Z,19.83
2018-11-14T16:02:54.343Z,17.33
2018-11-14T16:05:24.553Z,14.23
2018-11-14T16:07:54.638Z,15.53
2018-11-14T16:10:24.667Z,21.40
2018-11-14T16:12:53.700Z,22.57
2018-11-14T16:18:58.884Z,23.83
2018-11-14T16:21:28.000Z,20.17
2018-11-14T16:23:57.055Z,17.97
2018-11-14T16:26:26.041Z,16.57
2018-11-14T16:28:55.162Z,19.20
2018-11-14T16:31:24.296Z,19.90
2018-11-14T16:33:53.780Z,18.13
2018-11-14T16:36:23.334Z,18.47
2018-11-14T16:38:52.388Z,20.43
2018-11-14T16:41:21.327Z,21.50
2018-11-14T16:43:50.426Z,20.33
2018-11-14T16:46:19.625Z,23.53
2018-11-14T16:48:55.434Z,20.73
2018-11-14T16:51:25.051Z,21.13
2018-11-14T16:53:54.075Z,19.40
2018-11-14T16:56:23.170Z,22.30
2018-11-14T16:58:52.200Z,20.40
2018-11-14T17:01:21.370Z,23.97
2018-11-14T17:03:50.537Z,26.37
2018-11-14T17:06:19.523Z,34.63
2018-11-14T17:08:49.239Z,31.67
2018-11-14T17:11:18.205Z,36.20
2018-11-14T17:13:47.260Z,35.50
2018-11-14T17:16:16.772Z,29.57
2018-11-14T17:18:45.728Z,34.00
2018-11-14T17:21:15.182Z,32.80
2018-11-14T17:23:44.449Z,33.80
2018-11-14T17:26:13.573Z,30.33
2018-11-14T17:28:43.404Z,27.17
2018-11-14T17:31:12.400Z,25.87
2018-11-14T17:33:41.375Z,25.43
2018-11-14T17:36:10.640Z,22.60
2018-11-14T17:38:40.348Z,23.33
2018-11-14T17:41:10.492Z,18.20
2018-11-14T17:43:39.568Z,19.57
2018-11-14T17:46:08.673Z,20.87
2018-11-14T17:48:37.676Z,20.87
2018-11-14T17:51:06.714Z,20.53
2018-11-14T17:53:35.732Z,22.10
2018-11-14T17:56:05.450Z,19.00
2018-11-14T17:58:34.519Z,21.30
2018-11-14T18:01:04.225Z,29.73
2018-11-14T18:03:33.258Z,23.90
2018-11-14T18:06:02.349Z,27.57
2018-11-14T18:08:31.590Z,29.33
2018-11-14T18:11:00.873Z,24.97
2018-11-14T18:13:29.862Z,23.20
2018-11-14T18:15:59.027Z,22.70
2018-11-14T18:18:28.888Z,20.53
2018-11-14T18:20:58.014Z,22.87
2018-11-14T18:23:27.629Z,22.37
2018-11-14T18:25:56.769Z,23.80
2018-11-14T18:28:25.998Z,23.20
2018-11-14T18:30:55.215Z,26.07
2018-11-14T18:33:24.255Z,24.33
2018-11-14T18:35:54.069Z,21.73
2018-11-14T18:38:23.161Z,22.53
2018-11-14T18:40:52.137Z,20.67
2018-11-14T18:43:21.158Z,19.80
2018-11-14T18:45:50.412Z,17.80
2018-11-14T18:48:19.342Z,16.77
2018-11-14T18:50:48.362Z,16.23
2018-11-14T18:53:17.395Z,18.03
2018-11-14T18:55:46.484Z,17.00
2018-11-14T18:58:16.469Z,16.97
2018-11-14T19:00:45.542Z,15.50
2018-11-14T19:03:14.617Z,16.93
2018-11-14T19:05:43.638Z,15.53
2018-11-14T19:08:12.754Z,15.73
2018-11-14T19:10:41.738Z,15.20
2018-11-14T19:13:11.027Z,13.83
2018-11-14T19:15:40.201Z,18.03
2018-11-14T19:18:09.185Z,17.53
2018-11-14T19:20:38.155Z,18.20
2018-11-14T19:23:07.267Z,16.47
2018-11-14T19:25:37.924Z,17.93
2018-11-14T19:28:07.032Z,16.60
2018-11-14T19:30:37.366Z,17.13
2018-11-14T19:33:06.525Z,15.17
2018-11-14T19:35:35.594Z,15.83
2018-11-14T19:38:04.775Z,16.10
2018-11-14T19:40:36.458Z,16.83
2018-11-14T19:43:07.284Z,17.37
2018-11-14T19:45:37.426Z,16.00
2018-11-14T19:48:06.652Z,17.43
2018-11-14T19:50:35.953Z,17.67
2018-11-14T19:53:05.052Z,18.50
2018-11-14T19:55:35.334Z,18.13
2018-11-14T19:58:05.287Z,17.17
2018-11-14T20:00:36.453Z,18.47
2018-11-14T20:03:06.225Z,15.87
2018-11-14T20:05:35.376Z,18.23
2018-11-14T20:08:04.590Z,19.70
2018-11-14T20:10:34.134Z,17.63
2018-11-14T20:13:03.208Z,17.63
2018-11-14T20:15:33.500Z,16.43
2018-11-14T20:18:03.049Z,17.13
2018-11-14T20:20:34.456Z,15.80
2018-11-14T20:23:05.187Z,16.63
2018-11-14T20:25:34.297Z,15.87
2018-11-14T20:28:03.396Z,16.07
2018-11-14T20:30:34.873Z,15.37
2018-11-14T20:33:05.621Z,14.67
2018-11-14T20:35:34.582Z,16.23
2018-11-14T20:38:04.148Z,15.90
2018-11-14T20:40:33.110Z,16.50
2018-11-14T20:43:02.194Z,17.23
2018-11-14T20:45:33.129Z,16.83
2018-11-14T20:48:02.222Z,16.93
2018-11-14T20:50:31.501Z,16.53
2018-11-14T20:53:02.349Z,19.10
2018-11-14T20:55:32.135Z,18.37
2018-11-14T20:58:01.478Z,17.37
2018-11-14T21:00:33.023Z,17.77
2018-11-14T21:03:02.094Z,17.20
2018-11-14T21:05:31.813Z,16.53
2018-11-14T21:08:00.753Z,16.27
2018-11-14T21:10:31.253Z,16.50
2018-11-14T21:13:00.921Z,15.70
2018-11-14T21:15:31.350Z,15.93
2018-11-14T21:18:01.402Z,16.67
2018-11-14T21:20:30.643Z,16.47
2018-11-14T21:22:59.727Z,16.80
2018-11-14T21:25:29.190Z,16.37
2018-11-14T21:27:58.455Z,15.60
2018-11-14T21:30:28.631Z,16.13
2018-11-14T21:32:57.664Z,16.77
2018-11-14T21:35:30.271Z,16.40
2018-11-14T21:38:02.453Z,15.30
2018-11-14T21:40:31.909Z,16.27
2018-11-14T21:43:01.300Z,16.47
2018-11-14T21:45:30.848Z,16.60
2018-11-14T21:48:05.306Z,15.77
2018-11-14T21:50:34.391Z,15.70
2018-11-14T21:53:04.205Z,15.47
2018-11-14T21:55:33.251Z,15.67
2018-11-14T21:58:03.632Z,15.77
2018-11-14T22:00:35.832Z,15.50
2018-11-14T22:03:05.326Z,14.93
2018-11-14T22:05:34.832Z,16.17
2018-11-14T22:08:04.002Z,13.80
2018-11-14T22:10:33.154Z,14.67
2018-11-14T22:13:02.148Z,13.60
2018-11-14T22:15:32.645Z,13.93
2018-11-14T22:18:01.891Z,14.43
2018-11-14T22:20:32.511Z,13.10
2018-11-14T22:23:01.656Z,13.53
2018-11-14T22:25:31.102Z,14.00
2018-11-14T22:28:00.157Z,13.13
2018-11-14T22:30:31.827Z,12.40
2018-11-14T22:33:00.888Z,14.10
2018-11-14T22:35:31.297Z,11.30
2018-11-14T22:38:00.275Z,12.50
2018-11-14T22:40:30.464Z,13.30
2018-11-14T22:42:59.718Z,12.97
2018-11-14T22:45:30.039Z,12.90
2018-11-14T22:47:59.116Z,14.67
2018-11-14T22:50:28.352Z,13.87
2018-11-14T22:52:57.402Z,14.67
2018-11-14T22:55:26.978Z,13.17
2018-11-14T22:57:57.032Z,14.80
2018-11-14T23:00:28.974Z,14.03
2018-11-14T23:02:59.837Z,14.10
2018-11-14T23:05:29.145Z,14.30
2018-11-14T23:07:59.232Z,14.20
2018-11-14T23:10:28.553Z,13.57
2018-11-14T23:12:57.737Z,14.60
2018-11-14T23:15:26.801Z,14.20
2018-11-14T23:17:55.820Z,15.70
2018-11-14T23:20:24.890Z,14.77
2018-11-14T23:22:54.687Z,14.37
2018-11-14T23:25:23.933Z,15.00
2018-11-14T23:27:54.368Z,14.77
2018-11-14T23:30:24.589Z,14.10
2018-11-14T23:32:54.466Z,14.30
2018-11-14T23:35:25.180Z,13.57
2018-11-14T23:37:55.641Z,14.87
2018-11-14T23:40:25.342Z,14.17
2018-11-14T23:42:54.312Z,14.47
2018-11-14T23:45:24.167Z,15.93
2018-11-14T23:47:53.199Z,12.93
2018-11-14T23:50:24.833Z,13.90
2018-11-14T23:52:54.946Z,15.00
2018-11-14T23:55:25.081Z,14.50
2018-11-14T23:57:54.072Z,13.73
